createdAt,value
2023-04-29T00:21:25.690Z,12.52
2023-04-29T00:22:25.892Z,12.51
2023-04-29T00:23:26.151Z,12.54
2023-04-29T00:24:26.390Z,12.52
2023-04-29T00:25:27.987Z,12.52
2023-04-29T00:26:28.616Z,12.51
2023-04-29T00:27:29.726Z,12.49
2023-04-29T00:28:27.934Z,12.48
2023-04-29T00:29:30.765Z,12.49
2023-04-29T00:30:29.920Z,12.51
2023-04-29T00:31:27.847Z,12.54
2023-04-29T00:32:28.080Z,12.52
2023-04-29T00:33:30.501Z,12.54
2023-04-29T00:34:29.690Z,12.56
2023-04-29T00:35:31.416Z,12.52
2023-04-29T00:36:31.568Z,12.56
2023-04-29T00:37:30.963Z,12.56
2023-04-29T00:38:30.476Z,12.56
2023-04-29T00:39:29.694Z,12.54
2023-04-29T00:40:31.392Z,12.57
2023-04-29T00:41:30.040Z,12.56
2023-04-29T00:42:31.151Z,12.56
2023-04-29T00:43:30.297Z,12.54
2023-04-29T00:44:32.483Z,12.52
2023-04-29T00:45:31.676Z,12.51
2023-04-29T00:46:30.939Z,12.48
2023-04-29T00:47:33.115Z,12.46
2023-04-29T00:48:32.750Z,12.44
2023-04-29T00:49:31.537Z,12.42
2023-04-29T00:50:33.781Z,12.41
2023-04-29T00:51:34.957Z,12.39
2023-04-29T00:52:33.303Z,12.34
2023-04-29T00:53:32.541Z,12.34
2023-04-29T00:54:33.676Z,12.31
2023-04-29T00:55:34.822Z,12.30
2023-04-29T00:56:34.537Z,12.30
2023-04-29T00:57:35.325Z,12.30
2023-04-29T00:58:33.556Z,12.29
2023-04-29T00:59:33.770Z,12.27
2023-04-29T01:00:35.066Z,12.27
2023-04-29T01:01:35.186Z,12.27
2023-04-29T01:02:34.461Z,12.26
2023-04-29T01:03:36.354Z,12.24
2023-04-29T01:04:38.378Z,12.23
2023-04-29T01:05:46.173Z,12.21
2023-04-29T01:06:35.369Z,12.20
2023-04-29T01:07:37.660Z,12.19
2023-04-29T01:08:35.939Z,12.19
2023-04-29T01:09:36.085Z,12.16
2023-04-29T01:10:38.072Z,12.16
2023-04-29T01:11:38.717Z,12.16
2023-04-29T01:12:38.182Z,12.15
2023-04-29T01:13:41.255Z,12.19
2023-04-29T01:14:41.511Z,12.15
2023-04-29T01:15:42.613Z,12.12
2023-04-29T01:16:38.347Z,12.12
2023-04-29T01:17:40.250Z,12.11
2023-04-29T01:18:40.080Z,12.11
2023-04-29T01:19:42.220Z,12.12
2023-04-29T01:20:38.998Z,12.12
2023-04-29T01:21:39.151Z,12.11
2023-04-29T01:22:42.118Z,12.09
2023-04-29T01:23:40.979Z,12.12
2023-04-29T01:24:40.140Z,12.09
2023-04-29T01:25:44.894Z,12.08
2023-04-29T01:26:41.584Z,12.08
2023-04-29T01:27:41.687Z,12.09
2023-04-29T01:28:40.818Z,12.08
2023-04-29T01:29:40.984Z,12.08
2023-04-29T01:30:41.459Z,12.08
2023-04-29T01:31:41.624Z,12.06
2023-04-29T01:32:42.627Z,12.08
2023-04-29T01:33:43.848Z,12.08
2023-04-29T01:34:42.379Z,12.09
2023-04-29T01:36:43.695Z,12.11
2023-04-29T01:37:44.304Z,12.09
2023-04-29T01:38:42.451Z,12.08
2023-04-29T01:39:43.822Z,12.09
2023-04-29T01:40:42.951Z,12.08
2023-04-29T01:41:43.211Z,12.06
2023-04-29T01:42:45.453Z,12.06
2023-04-29T01:43:45.664Z,12.04
2023-04-29T01:44:44.876Z,12.02
2023-04-29T01:45:45.578Z,12.01
2023-04-29T01:46:44.520Z,12.04
2023-04-29T01:47:45.698Z,12.02
2023-04-29T01:48:44.418Z,11.99
2023-04-29T01:49:44.883Z,11.97
2023-04-29T01:50:47.160Z,11.99
2023-04-29T01:51:45.399Z,11.97
2023-04-29T01:52:47.109Z,11.99
2023-04-29T01:53:46.730Z,11.96
2023-04-29T01:54:49.492Z,11.96
2023-04-29T01:55:49.857Z,11.94
2023-04-29T01:56:49.520Z,11.93
2023-04-29T01:57:54.288Z,11.93
2023-04-29T01:58:46.967Z,11.90
2023-04-29T01:59:48.113Z,11.90
2023-04-29T02:00:48.373Z,11.87
2023-04-29T02:01:50.684Z,11.87
2023-04-29T02:02:49.477Z,11.86
2023-04-29T02:03:49.462Z,11.85
2023-04-29T02:04:49.096Z,11.85
2023-04-29T02:05:56.787Z,11.83
2023-04-29T02:06:49.898Z,11.82
2023-04-29T02:07:48.127Z,11.80
2023-04-29T02:08:49.540Z,11.80
2023-04-29T02:09:51.044Z,11.77
2023-04-29T02:10:51.489Z,11.74
2023-04-29T02:11:49.242Z,11.72
2023-04-29T02:12:51.585Z,11.71
2023-04-29T02:13:49.845Z,11.71
2023-04-29T02:14:50.689Z,11.71
2023-04-29T02:15:53.563Z,11.68
2023-04-29T02:16:52.559Z,11.70
2023-04-29T02:17:50.821Z,11.68
2023-04-29T02:18:51.799Z,11.70
2023-04-29T02:19:51.647Z,11.70
2023-04-29T02:20:51.573Z,11.70
2023-04-29T02:21:51.767Z,11.68
2023-04-29T02:22:53.953Z,11.67
2023-04-29T02:23:52.131Z,11.67
2023-04-29T02:24:52.308Z,11.64
2023-04-29T02:25:54.814Z,11.64
2023-04-29T02:26:55.193Z,11.62
2023-04-29T02:27:53.428Z,11.61
2023-04-29T02:28:53.695Z,11.62
2023-04-29T02:29:54.920Z,11.59
2023-04-29T02:30:54.323Z,11.59
2023-04-29T02:31:56.484Z,11.56
2023-04-29T02:32:57.435Z,11.53
2023-04-29T02:33:56.699Z,11.54
2023-04-29T02:34:57.151Z,11.53
2023-04-29T02:35:55.801Z,11.53
2023-04-29T02:36:58.446Z,11.54
2023-04-29T02:37:57.313Z,11.54
2023-04-29T02:38:57.457Z,11.53
2023-04-29T02:39:57.623Z,11.53
2023-04-29T02:40:58.827Z,11.50
2023-04-29T02:41:58.203Z,11.46
2023-04-29T02:42:57.523Z,11.47
2023-04-29T02:43:58.828Z,11.46
2023-04-29T02:45:01.092Z,11.43
2023-04-29T02:46:00.636Z,11.44
2023-04-29T02:46:59.580Z,11.44
2023-04-29T02:48:00.513Z,11.44
2023-04-29T02:48:58.769Z,11.41
2023-04-29T02:49:59.246Z,11.44
2023-04-29T02:50:59.451Z,11.41
2023-04-29T02:52:02.100Z,11.41
2023-04-29T02:53:00.693Z,11.36
2023-04-29T02:54:00.004Z,11.36
2023-04-29T02:55:00.526Z,11.36
2023-04-29T02:56:02.866Z,11.34
2023-04-29T02:57:01.060Z,11.34
2023-04-29T02:58:01.759Z,11.34
2023-04-29T02:59:01.642Z,11.35
2023-04-29T03:00:02.954Z,11.36
2023-04-29T03:01:02.190Z,11.36
2023-04-29T03:02:02.360Z,11.36
2023-04-29T03:03:03.697Z,11.34
2023-04-29T03:04:04.187Z,11.34
2023-04-29T03:05:05.853Z,11.34
2023-04-29T03:06:04.890Z,11.34
2023-04-29T03:07:05.952Z,11.29
2023-04-29T03:08:03.890Z,11.27
2023-04-29T03:09:08.753Z,11.25
2023-04-29T03:10:04.556Z,11.24
2023-04-29T03:11:04.786Z,11.25
2023-04-29T03:12:06.026Z,11.25
2023-04-29T03:13:09.222Z,11.21
2023-04-29T03:14:05.219Z,11.21
2023-04-29T03:15:08.084Z,11.20
2023-04-29T03:16:05.883Z,11.20
2023-04-29T03:17:08.463Z,11.19
2023-04-29T03:18:06.265Z,11.19
2023-04-29T03:19:06.548Z,11.20
2023-04-29T03:20:07.883Z,11.17
2023-04-29T03:21:07.108Z,11.19
2023-04-29T03:22:07.336Z,11.19
2023-04-29T03:23:07.507Z,11.20
2023-04-29T03:24:08.736Z,11.21
2023-04-29T03:25:20.499Z,11.19
2023-04-29T03:26:10.326Z,11.20
2023-04-29T03:27:09.579Z,11.21
2023-04-29T03:28:10.304Z,11.20
2023-04-29T03:29:09.075Z,11.21
2023-04-29T03:30:11.371Z,11.21
2023-04-29T03:31:11.154Z,11.24
2023-04-29T03:32:11.800Z,11.25
2023-04-29T03:33:10.212Z,11.25
2023-04-29T03:34:13.950Z,11.21
2023-04-29T03:35:15.854Z,11.21
2023-04-29T03:36:12.319Z,11.21
2023-04-29T03:38:13.739Z,11.24
2023-04-29T03:39:13.125Z,11.20
2023-04-29T03:40:11.927Z,11.19
2023-04-29T03:41:12.207Z,11.19
2023-04-29T03:42:12.399Z,11.19
2023-04-29T03:43:12.609Z,11.19
2023-04-29T03:44:13.338Z,11.16
2023-04-29T03:45:13.148Z,11.17
2023-04-29T03:46:13.479Z,11.16
2023-04-29T03:47:13.666Z,11.14
2023-04-29T03:48:14.909Z,11.16
2023-04-29T03:49:14.200Z,11.14
2023-04-29T03:50:14.675Z,11.13
2023-04-29T03:51:15.824Z,11.13
2023-04-29T03:52:16.939Z,11.13
2023-04-29T03:53:17.745Z,11.11
2023-04-29T03:54:18.429Z,11.10
2023-04-29T03:55:15.616Z,11.09
2023-04-29T03:56:17.337Z,11.07
2023-04-29T03:57:18.597Z,11.09
2023-04-29T03:58:16.333Z,11.09
2023-04-29T03:59:16.464Z,11.07
2023-04-29T04:00:17.759Z,11.06
2023-04-29T04:01:17.982Z,11.06
2023-04-29T04:02:18.347Z,11.03
2023-04-29T04:03:19.608Z,11.03
2023-04-29T04:04:18.144Z,11.03
2023-04-29T04:05:20.543Z,11.06
2023-04-29T04:06:19.166Z,11.03
2023-04-29T04:07:20.519Z,11.06
2023-04-29T04:08:18.726Z,11.03
2023-04-29T04:09:18.876Z,11.03
2023-04-29T04:10:22.105Z,11.03
2023-04-29T04:11:19.806Z,11.02
2023-04-29T04:12:20.100Z,11.02
2023-04-29T04:13:21.420Z,11.01
2023-04-29T04:14:22.114Z,11.01
2023-04-29T04:15:21.768Z,11.02
2023-04-29T04:16:23.905Z,11.02
2023-04-29T04:17:22.064Z,11.02
2023-04-29T04:18:22.867Z,11.03
2023-04-29T04:19:21.602Z,11.03
2023-04-29T04:20:21.762Z,11.06
2023-04-29T04:21:21.944Z,11.03
2023-04-29T04:22:22.133Z,11.02
2023-04-29T04:23:22.311Z,11.02
2023-04-29T04:24:23.928Z,11.02
2023-04-29T04:25:24.298Z,11.06
2023-04-29T04:26:23.063Z,11.07
2023-04-29T04:27:23.305Z,11.03
2023-04-29T04:28:25.061Z,11.06
2023-04-29T04:29:23.829Z,11.07
2023-04-29T04:30:25.476Z,11.09
2023-04-29T04:31:26.588Z,11.07
2023-04-29T04:32:26.540Z,11.10
2023-04-29T04:33:25.792Z,11.07
2023-04-29T04:34:28.042Z,11.10
2023-04-29T04:35:36.375Z,11.10
2023-04-29T04:36:27.510Z,11.09
2023-04-29T04:37:27.144Z,11.07
2023-04-29T04:38:26.843Z,11.07
2023-04-29T04:39:28.001Z,11.07
2023-04-29T04:40:28.115Z,11.09
2023-04-29T04:41:26.395Z,11.09
2023-04-29T04:42:26.582Z,11.07
2023-04-29T04:43:26.801Z,11.06
2023-04-29T04:44:29.038Z,11.07
2023-04-29T04:45:28.769Z,11.07
2023-04-29T04:46:32.467Z,11.07
2023-04-29T04:47:30.424Z,11.03
2023-04-29T04:48:28.124Z,11.02
2023-04-29T04:49:29.769Z,11.03
2023-04-29T04:50:28.399Z,11.03
2023-04-29T04:51:43.199Z,11.07
2023-04-29T04:52:32.886Z,11.06
2023-04-29T04:53:30.601Z,11.06
2023-04-29T04:54:31.716Z,11.06
2023-04-29T04:55:29.556Z,11.06
2023-04-29T04:56:33.084Z,11.06
2023-04-29T04:57:30.796Z,11.03
2023-04-29T04:58:31.020Z,11.06
2023-04-29T04:59:32.175Z,11.03
2023-04-29T05:00:30.361Z,11.03
2023-04-29T05:01:33.593Z,11.03
2023-04-29T05:02:33.227Z,11.03
2023-04-29T05:03:39.094Z,11.03
2023-04-29T05:04:34.864Z,11.03
2023-04-29T05:06:33.790Z,10.99
2023-04-29T05:07:40.074Z,10.99
2023-04-29T05:08:33.821Z,10.98
2023-04-29T05:09:32.136Z,10.94
2023-04-29T05:10:32.855Z,10.94
2023-04-29T05:11:33.419Z,10.94
2023-04-29T05:12:32.630Z,10.92
2023-04-29T05:13:32.805Z,10.92
2023-04-29T05:14:33.014Z,10.92
2023-04-29T05:15:37.220Z,10.94
2023-04-29T05:16:33.424Z,10.92
2023-04-29T05:17:33.592Z,10.94
2023-04-29T05:18:33.706Z,10.94
2023-04-29T05:19:35.061Z,10.96
2023-04-29T05:20:34.277Z,10.95
2023-04-29T05:21:34.551Z,10.95
2023-04-29T05:22:35.710Z,10.95
2023-04-29T05:23:35.429Z,10.94
2023-04-29T05:24:37.282Z,10.94
2023-04-29T05:25:40.404Z,10.91
2023-04-29T05:26:35.600Z,10.89
2023-04-29T05:27:35.836Z,10.88
2023-04-29T05:28:36.098Z,10.86
2023-04-29T05:29:37.071Z,10.88
2023-04-29T05:30:40.987Z,10.88
2023-04-29T05:31:37.559Z,10.84
2023-04-29T05:32:37.521Z,10.83
2023-04-29T05:33:38.400Z,10.83
2023-04-29T05:34:38.560Z,10.81
2023-04-29T05:36:38.474Z,10.88
2023-04-29T05:37:40.322Z,10.88
2023-04-29T05:38:39.020Z,10.89
2023-04-29T05:39:39.113Z,10.89
2023-04-29T05:40:39.262Z,10.91
2023-04-29T05:41:39.793Z,10.89
2023-04-29T05:42:40.079Z,10.91
2023-04-29T05:43:38.968Z,10.94
2023-04-29T05:44:39.971Z,10.94
2023-04-29T05:45:49.546Z,10.95
2023-04-29T05:46:41.416Z,10.95
2023-04-29T05:47:39.669Z,10.95
2023-04-29T05:48:41.816Z,10.92
2023-04-29T05:49:39.960Z,10.91
2023-04-29T05:50:40.073Z,10.92
2023-04-29T05:51:40.407Z,10.94
2023-04-29T05:52:40.612Z,10.95
2023-04-29T05:53:41.605Z,10.96
2023-04-29T05:54:43.304Z,10.98
2023-04-29T05:55:42.556Z,10.98
2023-04-29T05:56:43.256Z,10.99
2023-04-29T05:57:42.387Z,11.02
2023-04-29T05:58:42.521Z,11.03
2023-04-29T05:59:43.738Z,11.03
2023-04-29T06:00:43.617Z,11.01
2023-04-29T06:01:42.262Z,10.99
2023-04-29T06:02:54.887Z,11.01
2023-04-29T06:03:44.386Z,11.01
2023-04-29T06:04:47.763Z,11.06
2023-04-29T06:06:45.338Z,11.03
2023-04-29T06:07:44.380Z,11.06
2023-04-29T06:08:43.566Z,11.03
2023-04-29T06:09:44.707Z,11.03
2023-04-29T06:10:47.218Z,11.03
2023-04-29T06:11:44.061Z,11.06
2023-04-29T06:12:44.213Z,11.02
2023-04-29T06:13:46.354Z,11.06
2023-04-29T06:14:45.507Z,11.07
2023-04-29T06:15:46.372Z,11.09
2023-04-29T06:16:45.881Z,11.13
2023-04-29T06:17:46.137Z,11.16
2023-04-29T06:18:45.988Z,11.19
2023-04-29T06:19:47.782Z,11.24
2023-04-29T06:20:46.541Z,11.25
2023-04-29T06:21:46.680Z,11.28
2023-04-29T06:22:46.932Z,11.29
2023-04-29T06:23:49.209Z,11.28
2023-04-29T06:24:48.076Z,11.25
2023-04-29T06:25:49.395Z,11.27
2023-04-29T06:26:49.926Z,11.31
2023-04-29T06:27:49.634Z,11.34
2023-04-29T06:28:49.274Z,11.36
2023-04-29T06:29:50.886Z,11.43
2023-04-29T06:30:49.580Z,11.43
2023-04-29T06:31:51.382Z,11.41
2023-04-29T06:32:50.504Z,11.44
2023-04-29T06:33:49.826Z,11.47
2023-04-29T06:34:49.968Z,11.46
2023-04-29T06:35:53.900Z,11.46
2023-04-29T06:36:51.123Z,11.47
2023-04-29T06:37:50.812Z,11.53
2023-04-29T06:38:50.991Z,11.41
2023-04-29T06:39:52.782Z,11.29
2023-04-29T06:40:52.697Z,11.28
2023-04-29T06:41:52.024Z,11.29
2023-04-29T06:42:53.664Z,11.34
2023-04-29T06:43:53.193Z,11.41
2023-04-29T06:44:53.432Z,11.49
2023-04-29T06:45:54.443Z,11.54
2023-04-29T06:46:53.221Z,11.61
2023-04-29T06:47:55.426Z,11.65
2023-04-29T06:48:53.296Z,11.74
2023-04-29T06:49:53.928Z,11.80
2023-04-29T06:50:53.869Z,11.87
2023-04-29T06:51:54.081Z,11.85
2023-04-29T06:52:54.317Z,11.80
2023-04-29T06:53:56.645Z,11.72
2023-04-29T06:54:55.434Z,11.71
2023-04-29T06:55:56.018Z,11.75
2023-04-29T06:56:55.876Z,11.85
2023-04-29T06:57:55.934Z,11.90
2023-04-29T06:58:55.374Z,12.01
2023-04-29T06:59:59.351Z,12.06
2023-04-29T07:00:56.446Z,12.12
2023-04-29T07:01:56.688Z,12.09
2023-04-29T07:02:57.233Z,12.08
2023-04-29T07:03:56.319Z,12.06
2023-04-29T07:04:57.346Z,12.06
2023-04-29T07:05:58.345Z,12.08
2023-04-29T07:06:59.129Z,12.11
2023-04-29T07:07:57.613Z,12.15
2023-04-29T07:08:57.423Z,12.20
2023-04-29T07:09:57.682Z,12.29
2023-04-29T07:10:58.883Z,12.30
2023-04-29T07:11:58.206Z,12.33
2023-04-29T07:12:58.434Z,12.34
2023-04-29T07:13:59.574Z,12.39
2023-04-29T07:14:58.946Z,12.42
2023-04-29T07:15:59.929Z,12.42
2023-04-29T07:16:59.230Z,12.42
2023-04-29T07:17:59.580Z,12.39
2023-04-29T07:19:00.632Z,12.38
2023-04-29T07:20:01.237Z,12.33
2023-04-29T07:21:01.484Z,12.31
2023-04-29T07:22:00.165Z,12.31
2023-04-29T07:23:00.306Z,12.24
2023-04-29T07:24:02.420Z,12.12
2023-04-29T07:25:02.652Z,12.06
2023-04-29T07:26:00.816Z,12.05
2023-04-29T07:27:01.101Z,12.05
2023-04-29T07:28:01.444Z,12.05
2023-04-29T07:29:03.632Z,12.06
2023-04-29T07:30:03.736Z,12.08
2023-04-29T07:31:02.183Z,12.12
2023-04-29T07:32:04.286Z,12.12
2023-04-29T07:33:02.543Z,12.13
2023-04-29T07:34:03.857Z,12.13
2023-04-29T07:35:04.126Z,12.19
2023-04-29T07:36:04.254Z,12.20
2023-04-29T07:37:04.881Z,12.21
2023-04-29T07:38:04.145Z,12.29
2023-04-29T07:39:03.852Z,12.30
2023-04-29T07:40:04.184Z,12.27
2023-04-29T07:41:04.603Z,12.29
2023-04-29T07:42:05.724Z,12.30
2023-04-29T07:43:04.914Z,12.30
2023-04-29T07:44:05.928Z,12.31
2023-04-29T07:45:05.248Z,12.31
2023-04-29T07:46:05.554Z,12.31
2023-04-29T07:47:05.799Z,12.34
2023-04-29T07:48:05.988Z,12.34
2023-04-29T07:49:08.223Z,12.30
2023-04-29T07:50:06.431Z,12.31
2023-04-29T07:51:08.079Z,12.34
2023-04-29T07:52:08.797Z,12.37
2023-04-29T07:53:07.261Z,12.44
2023-04-29T07:54:08.261Z,12.37
2023-04-29T07:55:09.388Z,12.33
2023-04-29T07:56:07.862Z,12.33
2023-04-29T07:57:09.228Z,12.34
2023-04-29T07:58:10.372Z,12.34
2023-04-29T07:59:08.700Z,12.33
2023-04-29T08:00:09.385Z,12.29
2023-04-29T08:01:09.992Z,12.27
2023-04-29T08:02:09.156Z,12.29
2023-04-29T08:03:09.531Z,12.34
2023-04-29T08:04:09.537Z,12.33
2023-04-29T08:05:10.666Z,12.38
2023-04-29T08:06:10.852Z,12.44
2023-04-29T08:07:10.115Z,12.46
2023-04-29T08:08:10.246Z,12.51
2023-04-29T08:09:11.826Z,12.52
2023-04-29T08:10:11.971Z,12.54
2023-04-29T08:11:11.746Z,12.59
2023-04-29T08:12:12.318Z,12.62
2023-04-29T08:13:11.035Z,12.60
2023-04-29T08:14:11.728Z,12.59
2023-04-29T08:15:12.149Z,12.63
2023-04-29T08:16:12.805Z,12.71
2023-04-29T08:17:12.740Z,12.70
2023-04-29T08:18:13.368Z,12.75
2023-04-29T08:19:12.785Z,12.71
2023-04-29T08:20:12.934Z,12.70
2023-04-29T08:21:13.205Z,12.70
2023-04-29T08:22:15.130Z,12.69
2023-04-29T08:23:13.787Z,12.66
2023-04-29T08:24:14.359Z,12.66
2023-04-29T08:25:14.602Z,12.67
2023-04-29T08:26:14.262Z,12.64
2023-04-29T08:27:15.939Z,12.64
2023-04-29T08:28:14.709Z,12.64
2023-04-29T08:29:14.873Z,12.63
2023-04-29T08:30:15.635Z,12.62
2023-04-29T08:31:15.356Z,12.59
2023-04-29T08:32:15.603Z,12.52
2023-04-29T08:33:18.182Z,12.52
2023-04-29T08:34:16.889Z,12.51
2023-04-29T08:35:19.126Z,12.48
2023-04-29T08:36:16.477Z,12.46
2023-04-29T08:37:18.390Z,12.49
2023-04-29T08:38:16.913Z,12.49
2023-04-29T08:39:17.053Z,12.52
2023-04-29T08:40:17.250Z,12.57
2023-04-29T08:41:18.356Z,12.60
2023-04-29T08:42:17.493Z,12.63
2023-04-29T08:43:17.688Z,12.67
2023-04-29T08:44:18.902Z,12.69
2023-04-29T08:45:20.686Z,12.69
2023-04-29T08:46:20.361Z,12.69
2023-04-29T08:47:18.637Z,12.64
2023-04-29T08:48:20.454Z,12.64
2023-04-29T08:49:19.813Z,12.63
2023-04-29T08:50:20.273Z,12.56
2023-04-29T08:51:20.067Z,12.60
2023-04-29T08:52:21.577Z,12.69
2023-04-29T08:53:21.043Z,12.75
2023-04-29T08:54:22.182Z,12.78
2023-04-29T08:55:21.098Z,12.82
2023-04-29T08:56:20.809Z,12.88
2023-04-29T08:57:23.900Z,12.92
2023-04-29T08:58:21.227Z,12.87
2023-04-29T08:59:22.835Z,12.88
2023-04-29T09:00:22.373Z,12.93
2023-04-29T09:01:23.329Z,13.00
2023-04-29T09:02:23.716Z,13.09
2023-04-29T09:03:24.518Z,13.21
2023-04-29T09:04:23.044Z,13.32
2023-04-29T09:06:27.903Z,13.62
2023-04-29T09:07:25.066Z,13.65
2023-04-29T09:08:23.247Z,13.73
2023-04-29T09:09:25.399Z,13.73
2023-04-29T09:10:23.580Z,13.77
2023-04-29T09:11:25.722Z,13.80
2023-04-29T09:12:23.913Z,13.81
2023-04-29T09:13:26.032Z,13.77
2023-04-29T09:14:26.124Z,13.70
2023-04-29T09:15:26.388Z,13.51
2023-04-29T09:16:24.704Z,13.46
2023-04-29T09:17:25.613Z,13.47
2023-04-29T09:18:27.243Z,13.52
2023-04-29T09:19:25.419Z,13.54
2023-04-29T09:20:25.697Z,13.47
2023-04-29T09:21:25.915Z,13.52
2023-04-29T09:22:26.212Z,13.59
2023-04-29T09:23:26.410Z,13.71
2023-04-29T09:24:26.657Z,13.77
2023-04-29T09:25:31.352Z,13.83
2023-04-29T09:26:27.095Z,13.91
2023-04-29T09:27:28.019Z,13.98
2023-04-29T09:28:28.706Z,14.04
2023-04-29T09:29:28.120Z,14.10
2023-04-29T09:30:28.406Z,14.14
2023-04-29T09:31:29.126Z,14.17
2023-04-29T09:32:28.795Z,14.21
2023-04-29T09:33:31.307Z,14.29
2023-04-29T09:34:29.909Z,14.35
2023-04-29T09:35:40.674Z,14.38
2023-04-29T09:36:29.614Z,14.44
2023-04-29T09:37:31.245Z,14.50
2023-04-29T09:38:31.622Z,14.57
2023-04-29T09:39:31.216Z,14.69
2023-04-29T09:40:30.442Z,14.81
2023-04-29T09:41:30.792Z,14.86
2023-04-29T09:42:32.294Z,14.94
2023-04-29T09:43:31.036Z,15.08
2023-04-29T09:44:34.285Z,15.21
2023-04-29T09:45:36.102Z,15.28
2023-04-29T09:46:31.432Z,15.38
2023-04-29T09:47:31.658Z,15.41
2023-04-29T09:48:31.833Z,15.41
2023-04-29T09:49:32.320Z,15.43
2023-04-29T09:50:31.986Z,15.57
2023-04-29T09:51:32.117Z,15.66
2023-04-29T09:52:32.617Z,15.75
2023-04-29T09:53:32.503Z,15.76
2023-04-29T09:54:32.228Z,15.82
2023-04-29T09:55:36.424Z,15.93
2023-04-29T09:56:34.588Z,15.94
2023-04-29T09:57:32.718Z,15.92
2023-04-29T09:58:35.856Z,15.97
2023-04-29T09:59:34.024Z,16.06
2023-04-29T10:00:33.139Z,16.16
2023-04-29T10:01:34.301Z,16.45
2023-04-29T10:02:35.115Z,16.95
2023-04-29T10:03:35.943Z,17.40
2023-04-29T10:04:34.791Z,17.78
2023-04-29T10:05:37.175Z,17.95
2023-04-29T10:06:36.779Z,17.94
2023-04-29T10:07:35.156Z,18.36
2023-04-29T10:08:36.394Z,18.31
2023-04-29T10:09:36.694Z,18.21
2023-04-29T10:10:38.491Z,17.99
2023-04-29T10:11:36.194Z,18.18
2023-04-29T10:12:37.880Z,18.40
2023-04-29T10:13:37.267Z,18.50
2023-04-29T10:14:37.808Z,18.34
2023-04-29T10:15:38.379Z,18.04
2023-04-29T10:16:37.021Z,17.70
2023-04-29T10:17:39.165Z,17.29
2023-04-29T10:18:39.320Z,16.99
2023-04-29T10:19:37.565Z,16.78
2023-04-29T10:20:37.689Z,16.56
2023-04-29T10:21:38.639Z,16.42
2023-04-29T10:22:39.113Z,16.27
2023-04-29T10:23:40.122Z,16.12
2023-04-29T10:24:39.194Z,15.97
2023-04-29T10:25:39.288Z,15.78
2023-04-29T10:26:38.388Z,15.70
2023-04-29T10:27:38.903Z,15.61
2023-04-29T10:28:39.807Z,15.51
2023-04-29T10:29:40.925Z,15.46
2023-04-29T10:30:40.552Z,15.41
2023-04-29T10:31:41.215Z,15.43
2023-04-29T10:32:50.387Z,15.46
2023-04-29T10:33:40.801Z,15.45
2023-04-29T10:34:41.690Z,15.41
2023-04-29T10:35:42.677Z,15.31
2023-04-29T10:36:42.590Z,15.23
2023-04-29T10:37:41.194Z,15.15
2023-04-29T10:38:42.297Z,15.11
2023-04-29T10:39:42.053Z,15.08
2023-04-29T10:40:42.519Z,15.06
2023-04-29T10:41:42.518Z,15.06
2023-04-29T10:42:43.060Z,15.08
2023-04-29T10:43:42.998Z,15.11
2023-04-29T10:44:44.233Z,15.15
2023-04-29T10:45:42.970Z,15.21
2023-04-29T10:46:45.120Z,15.23
2023-04-29T10:47:43.498Z,15.28
2023-04-29T10:48:46.345Z,15.35
2023-04-29T10:49:44.950Z,15.41
2023-04-29T10:50:44.968Z,15.46
2023-04-29T10:51:45.795Z,15.49
2023-04-29T10:52:46.400Z,15.49
2023-04-29T10:53:46.692Z,15.51
2023-04-29T10:54:45.861Z,15.64
2023-04-29T10:55:46.036Z,15.78
2023-04-29T10:56:45.373Z,15.93
2023-04-29T10:57:45.920Z,16.00
2023-04-29T10:58:45.852Z,16.04
2023-04-29T10:59:46.208Z,16.06
2023-04-29T11:00:48.349Z,16.04
2023-04-29T11:01:49.109Z,16.03
2023-04-29T11:02:47.960Z,16.01
2023-04-29T11:03:48.564Z,15.97
2023-04-29T11:04:48.311Z,15.85
2023-04-29T11:05:48.434Z,15.67
2023-04-29T11:06:48.480Z,15.52
2023-04-29T11:07:47.675Z,15.41
2023-04-29T11:08:48.869Z,15.31
2023-04-29T11:09:48.897Z,15.21
2023-04-29T11:10:49.636Z,15.09
2023-04-29T11:11:49.492Z,14.99
2023-04-29T11:12:48.649Z,14.87
2023-04-29T11:13:49.526Z,14.75
2023-04-29T11:14:49.265Z,14.67
2023-04-29T11:15:51.024Z,14.61
2023-04-29T11:16:49.776Z,14.53
2023-04-29T11:17:49.995Z,14.49
2023-04-29T11:18:50.156Z,14.44
2023-04-29T11:19:51.175Z,14.37
2023-04-29T11:20:50.489Z,14.32
2023-04-29T11:21:52.829Z,14.32
2023-04-29T11:22:51.509Z,14.32
2023-04-29T11:23:52.081Z,14.32
2023-04-29T11:24:53.515Z,14.29
2023-04-29T11:25:53.252Z,14.29
2023-04-29T11:26:53.517Z,14.32
2023-04-29T11:27:54.821Z,14.32
2023-04-29T11:28:54.538Z,14.35
2023-04-29T11:29:52.658Z,14.38
2023-04-29T11:30:54.297Z,14.43
2023-04-29T11:31:54.030Z,14.47
2023-04-29T11:32:55.659Z,14.50
2023-04-29T11:33:53.809Z,14.53
2023-04-29T11:34:55.913Z,14.53
2023-04-29T11:35:53.887Z,14.56
2023-04-29T11:36:55.416Z,14.57
2023-04-29T11:37:54.341Z,14.56
2023-04-29T11:38:55.541Z,14.53
2023-04-29T11:39:54.933Z,14.52
2023-04-29T11:40:55.298Z,14.53
2023-04-29T11:41:55.607Z,14.50
2023-04-29T11:42:55.893Z,14.43
2023-04-29T11:43:56.992Z,14.39
2023-04-29T11:44:56.264Z,14.39
2023-04-29T11:45:56.809Z,14.35
2023-04-29T11:46:56.562Z,14.31
2023-04-29T11:47:58.690Z,14.28
2023-04-29T11:48:56.869Z,14.21
2023-04-29T11:49:59.830Z,14.21
2023-04-29T11:50:58.148Z,14.21
2023-04-29T11:51:57.410Z,14.25
2023-04-29T11:52:57.895Z,14.21
2023-04-29T11:54:00.026Z,14.20
2023-04-29T11:54:57.776Z,14.19
2023-04-29T11:55:58.000Z,14.19
2023-04-29T11:56:58.339Z,14.17
2023-04-29T11:57:59.464Z,14.10
2023-04-29T11:59:00.687Z,14.06
2023-04-29T12:00:00.813Z,13.99
2023-04-29T12:00:58.941Z,13.83
2023-04-29T12:01:59.104Z,13.73
2023-04-29T12:02:59.521Z,13.70
2023-04-29T12:03:59.862Z,13.69
2023-04-29T12:04:59.924Z,13.69
2023-04-29T12:05:59.992Z,13.67
2023-04-29T12:07:02.185Z,13.70
2023-04-29T12:08:01.346Z,13.71
2023-04-29T12:09:01.431Z,13.73
2023-04-29T12:10:02.075Z,13.73
2023-04-29T12:11:00.752Z,13.74
2023-04-29T12:12:02.911Z,13.74
2023-04-29T12:13:01.324Z,13.74
2023-04-29T12:14:01.687Z,13.70
2023-04-29T12:15:01.916Z,13.67
2023-04-29T12:16:02.422Z,13.65
2023-04-29T12:17:02.095Z,13.62
2023-04-29T12:18:02.373Z,13.63
2023-04-29T12:19:02.608Z,13.63
2023-04-29T12:20:02.742Z,13.63
2023-04-29T12:21:02.899Z,13.65
2023-04-29T12:22:03.009Z,13.52
2023-04-29T12:23:03.194Z,13.49
2023-04-29T12:24:05.974Z,13.49
2023-04-29T12:25:03.913Z,13.49
2023-04-29T12:26:05.139Z,13.47
2023-04-29T12:27:06.239Z,13.49
2023-04-29T12:28:05.622Z,13.49
2023-04-29T12:29:04.700Z,13.52
2023-04-29T12:30:04.924Z,13.55
2023-04-29T12:31:05.032Z,13.56
2023-04-29T12:32:05.355Z,13.58
2023-04-29T12:33:05.583Z,13.62
2023-04-29T12:34:09.880Z,13.70
2023-04-29T12:35:07.990Z,13.74
2023-04-29T12:36:06.207Z,13.73
2023-04-29T12:37:08.843Z,13.77
2023-04-29T12:38:06.688Z,13.76
2023-04-29T12:39:06.912Z,13.76
2023-04-29T12:40:09.141Z,13.80
2023-04-29T12:41:07.472Z,13.87
2023-04-29T12:42:07.624Z,13.95
2023-04-29T12:43:09.731Z,14.07
2023-04-29T12:44:10.071Z,14.16
2023-04-29T12:45:10.696Z,14.25
2023-04-29T12:46:09.283Z,14.35
2023-04-29T12:47:08.514Z,14.46
2023-04-29T12:48:15.168Z,14.53
2023-04-29T12:49:08.949Z,14.53
2023-04-29T12:50:11.102Z,14.57
2023-04-29T12:51:09.313Z,14.61
2023-04-29T12:52:10.006Z,14.65
2023-04-29T12:53:11.640Z,14.62
2023-04-29T12:54:09.828Z,14.60
2023-04-29T12:55:13.265Z,14.60
2023-04-29T12:56:12.359Z,14.64
2023-04-29T12:57:11.467Z,14.68
2023-04-29T12:58:10.631Z,14.74
2023-04-29T12:59:12.723Z,14.80
2023-04-29T13:00:12.701Z,14.86
2023-04-29T13:01:11.830Z,14.84
2023-04-29T13:02:13.749Z,14.88
2023-04-29T13:03:12.109Z,14.99
2023-04-29T13:04:12.708Z,15.13
2023-04-29T13:05:35.571Z,15.27
2023-04-29T13:06:15.538Z,15.42
2023-04-29T13:07:13.787Z,15.52
2023-04-29T13:08:13.474Z,15.68
2023-04-29T13:09:18.581Z,15.61
2023-04-29T13:10:14.803Z,15.42
2023-04-29T13:11:13.988Z,15.23
2023-04-29T13:12:15.448Z,15.13
2023-04-29T13:13:15.127Z,15.13
2023-04-29T13:14:16.456Z,15.12
2023-04-29T13:15:16.108Z,15.11
2023-04-29T13:16:14.812Z,15.06
2023-04-29T13:17:16.969Z,14.95
2023-04-29T13:18:17.731Z,14.86
2023-04-29T13:19:30.522Z,14.83
2023-04-29T13:20:17.779Z,14.75
2023-04-29T13:21:18.916Z,14.67
2023-04-29T13:22:16.109Z,14.57